Time;durP1;ratioP1;P1;durP2;ratioP2;P2;SDS_P1;SDS_P2;PMS_P1;PMS_P2;Temp;Humidity;BMP_temperature;BMP_pressure;BME280_temperature;BME280_humidity;BME280_pressure;Samples;Min_cycle;Max_cycle;Signal;HPM_P1;HPM_P2
2022/08/06 00:02:11;;;;;;;;;;;25.20;53.10;;;;;;5044888;28;88002;-43
2022/08/06 00:04:37;;;;;;;;;;;25.20;53.10;;;;;;5045032;28;87202;-44
2022/08/06 00:07:02;;;;;;;;;;;25.10;53.00;;;;;;5045150;28;87498;-43
2022/08/06 00:09:30;;;;;;;;;;;25.10;53.00;;;;;;5044492;28;89742;-44
2022/08/06 00:12:05;;;;;;;;;;;25.10;53.00;;;;;;5047898;28;86974;-44
2022/08/06 00:14:31;;;;;;;;;;;25.10;53.00;;;;;;5044295;28;89598;-45
2022/08/06 00:16:56;;;;;;;;;;;25.10;53.00;;;;;;5045450;28;86293;-44
2022/08/06 00:19:22;;;;;;;;;;;25.10;53.00;;;;;;5044861;27;87047;-43
2022/08/06 00:21:48;;;;;;;;;;;25.10;53.10;;;;;;5043038;28;90986;-45
2022/08/06 00:24:14;;;;;;;;;;;25.00;53.00;;;;;;5044161;28;88076;-43
2022/08/06 00:26:39;;;;;;;;;;;25.00;53.00;;;;;;5044632;27;89677;-44
2022/08/06 00:29:05;;;;;;;;;;;25.00;52.90;;;;;;5044404;28;88224;-43
2022/08/06 00:31:31;;;;;;;;;;;25.00;53.00;;;;;;5044693;28;87346;-43
2022/08/06 00:34:00;;;;;;;;;;;25.00;53.00;;;;;;5046967;27;89000;-44
2022/08/06 00:36:26;;;;;;;;;;;25.00;53.00;;;;;;5043254;27;87004;-43
2022/08/06 00:38:52;;;;;;;;;;;25.00;53.00;;;;;;5044348;27;87478;-43
2022/08/06 00:41:18;;;;;;;;;;;25.00;53.00;;;;;;5044267;28;88920;-43
2022/08/06 00:43:44;;;;;;;;;;;24.90;53.00;;;;;;5044140;28;87153;-44
2022/08/06 00:46:10;;;;;;;;;;;24.90;53.00;;;;;;5044285;27;89454;-44
2022/08/06 00:48:35;;;;;;;;;;;24.90;53.00;;;;;;5043203;28;89329;-44
2022/08/06 00:51:01;;;;;;;;;;;24.90;52.90;;;;;;5044311;28;87581;-44
2022/08/06 00:53:26;;;;;;;;;;;24.90;53.00;;;;;;5044422;28;87831;-44
2022/08/06 00:55:52;;;;;;;;;;;24.90;53.00;;;;;;5046791;28;88274;-43
2022/08/06 00:58:17;;;;;;;;;;;24.80;53.00;;;;;;5043886;28;87065;-43
2022/08/06 01:00:42;;;;;;;;;;;24.80;53.00;;;;;;5043266;28;88189;-44
2022/08/06 01:03:10;;;;;;;;;;;24.80;53.00;;;;;;5043868;28;87096;-44
2022/08/06 01:05:36;;;;;;;;;;;24.80;53.00;;;;;;5044687;27;87380;-43
2022/08/06 01:08:01;;;;;;;;;;;24.70;52.90;;;;;;5043841;28;88056;-43
2022/08/06 01:10:27;;;;;;;;;;;24.80;53.00;;;;;;5044079;28;87057;-44
2022/08/06 01:12:53;;;;;;;;;;;24.80;53.00;;;;;;5043371;27;87927;-43
2022/08/06 01:15:18;;;;;;;;;;;24.70;53.00;;;;;;5046644;28;88084;-43
2022/08/06 01:17:50;;;;;;;;;;;24.70;52.90;;;;;;5044203;27;87569;-43
2022/08/06 01:20:38;;;;;;;;;;;24.70;52.90;;;;;;5042069;28;89867;-43
2022/08/06 01:23:22;;;;;;;;;;;24.70;53.00;;;;;;5044023;28;87167;-43
2022/08/06 01:26:06;;;;;;;;;;;24.70;53.00;;;;;;5043901;27;87447;-43
2022/08/06 01:28:37;;;;;;;;;;;24.60;53.00;;;;;;5043508;27;88075;-43
2022/08/06 01:31:10;;;;;;;;;;;24.60;53.00;;;;;;5043988;28;86353;-43
2022/08/06 01:34:02;;;;;;;;;;;24.60;53.00;;;;;;5043639;28;87516;-43
2022/08/06 01:36:32;;;;;;;;;;;24.60;53.00;;;;;;5040604;28;88044;-43
2022/08/06 01:39:00;;;;;;;;;;;24.60;53.10;;;;;;5045878;28;88126;-43
2022/08/06 01:41:38;;;;;;;;;;;24.60;53.00;;;;;;5043204;28;88276;-43
2022/08/06 01:44:09;;;;;;;;;;;24.60;53.00;;;;;;5043481;28;87055;-44
2022/08/06 01:46:40;;;;;;;;;;;24.50;52.90;;;;;;5043444;27;87460;-44
2022/08/06 01:49:07;;;;;;;;;;;24.50;53.00;;;;;;5042652;28;87929;-43
2022/08/06 01:51:33;;;;;;;;;;;24.50;53.00;;;;;;5043567;28;86913;-43
2022/08/06 01:54:01;;;;;;;;;;;24.50;53.00;;;;;;5043332;28;88641;-43
2022/08/06 01:56:27;;;;;;;;;;;24.50;53.60;;;;;;5043467;28;88854;-43
2022/08/06 01:58:54;;;;;;;;;;;24.50;53.00;;;;;;5043114;28;87089;-43
2022/08/06 02:01:20;;;;;;;;;;;24.40;52.90;;;;;;5044941;28;87527;-43
2022/08/06 02:03:47;;;;;;;;;;;24.40;53.00;;;;;;5042891;28;88034;-43
2022/08/06 02:06:16;;;;;;;;;;;24.40;53.00;;;;;;5043203;27;88338;-45
2022/08/06 02:08:43;;;;;;;;;;;24.40;53.10;;;;;;5042652;28;88550;-43
2022/08/06 02:11:09;;;;;;;;;;;24.30;53.00;;;;;;5043060;28;87306;-44
2022/08/06 02:13:35;;;;;;;;;;;24.30;53.10;;;;;;5043006;27;88887;-43
2022/08/06 02:16:02;;;;;;;;;;;24.30;53.00;;;;;;5042696;28;89348;-45
2022/08/06 02:18:29;;;;;;;;;;;24.30;53.10;;;;;;5042963;28;87057;-43
2022/08/06 02:20:57;;;;;;;;;;;24.30;53.10;;;;;;5043573;28;87366;-44
2022/08/06 02:23:23;;;;;;;;;;;24.30;53.00;;;;;;5045531;28;88331;-43
2022/08/06 02:25:50;;;;;;;;;;;24.30;53.00;;;;;;5042712;27;88707;-44
2022/08/06 02:28:17;;;;;;;;;;;24.30;53.00;;;;;;5041773;28;89333;-43
2022/08/06 02:30:44;;;;;;;;;;;24.30;53.10;;;;;;5042754;28;86997;-43
2022/08/06 02:33:10;;;;;;;;;;;24.20;53.00;;;;;;5043000;28;87423;-43
2022/08/06 02:35:53;;;;;;;;;;;24.20;53.00;;;;;;5042375;28;88257;-45
2022/08/06 02:38:30;;;;;;;;;;;24.20;53.10;;;;;;5042780;28;87056;-43
2022/08/06 02:41:04;;;;;;;;;;;24.20;53.00;;;;;;5042603;27;87490;-44
2022/08/06 02:43:35;;;;;;;;;;;24.10;53.60;;;;;;5042157;28;88296;-44
2022/08/06 02:46:06;;;;;;;;;;;24.10;53.10;;;;;;5046144;28;86237;-43
2022/08/06 02:48:37;;;;;;;;;;;24.10;53.10;;;;;;5042349;28;88025;-44
2022/08/06 02:51:05;;;;;;;;;;;24.10;53.10;;;;;;5042543;28;86834;-43
2022/08/06 02:53:37;;;;;;;;;;;24.10;53.10;;;;;;5042058;27;88011;-43
2022/08/06 02:56:06;;;;;;;;;;;24.00;53.10;;;;;;5042109;28;87257;-43
2022/08/06 02:58:39;;;;;;;;;;;24.10;53.10;;;;;;5042391;28;87076;-44
2022/08/06 03:01:07;;;;;;;;;;;24.00;53.10;;;;;;5043943;27;87442;-43
2022/08/06 03:03:33;;;;;;;;;;;24.00;53.10;;;;;;5045399;28;87912;-43
2022/08/06 03:06:00;;;;;;;;;;;24.00;53.10;;;;;;5046084;28;87063;-44
2022/08/06 03:08:27;;;;;;;;;;;24.00;53.10;;;;;;5048480;27;87418;-43
2022/08/06 03:10:53;;;;;;;;;;;24.00;53.10;;;;;;5046252;28;86384;-44
2022/08/06 03:13:21;;;;;;;;;;;23.90;53.70;;;;;;5046123;28;86995;-44
2022/08/06 03:15:47;;;;;;;;;;;23.90;53.00;;;;;;5045592;28;88043;-44
2022/08/06 03:18:15;;;;;;;;;;;24.00;53.10;;;;;;5045066;28;87998;-43
2022/08/06 03:20:41;;;;;;;;;;;23.90;53.10;;;;;;5045884;27;88914;-43
2022/08/06 03:23:08;;;;;;;;;;;23.90;53.20;;;;;;5045426;28;87108;-43
2022/08/06 03:25:35;;;;;;;;;;;23.80;53.10;;;;;;5045603;28;87050;-44
2022/08/06 03:28:01;;;;;;;;;;;23.90;53.20;;;;;;5048153;27;87470;-43
2022/08/06 03:30:27;;;;;;;;;;;23.80;53.20;;;;;;5045518;28;86895;-43
2022/08/06 03:32:53;;;;;;;;;;;23.80;53.10;;;;;;5045488;28;87978;-43
2022/08/06 03:35:19;;;;;;;;;;;23.70;53.20;;;;;;5045802;28;87228;-44
2022/08/06 03:37:46;;;;;;;;;;;23.80;53.20;;;;;;5045267;28;87080;-44
2022/08/06 03:40:14;;;;;;;;;;;23.70;53.10;;;;;;5045461;28;87522;-43
2022/08/06 03:42:39;;;;;;;;;;;23.70;53.10;;;;;;5044338;28;90239;-43
2022/08/06 03:45:05;;;;;;;;;;;23.70;53.10;;;;;;5045364;28;86860;-43
2022/08/06 03:47:39;;;;;;;;;;;23.70;53.20;;;;;;5045270;28;87516;-43
2022/08/06 03:50:08;;;;;;;;;;;23.70;53.10;;;;;;5048156;28;88042;-44
2022/08/06 03:52:37;;;;;;;;;;;23.70;53.20;;;;;;5045355;27;87215;-44
2022/08/06 03:55:04;;;;;;;;;;;23.60;53.20;;;;;;5044634;28;88023;-43
2022/08/06 03:57:35;;;;;;;;;;;23.60;53.10;;;;;;5045093;28;87040;-44
2022/08/06 04:00:01;;;;;;;;;;;23.60;53.20;;;;;;5045447;27;87386;-43
2022/08/06 04:02:28;;;;;;;;;;;23.60;53.20;;;;;;5044800;28;88134;-44
2022/08/06 04:04:54;;;;;;;;;;;23.60;53.20;;;;;;5044996;28;87166;-43
2022/08/06 04:07:19;;;;;;;;;;;23.60;53.20;;;;;;5044638;27;87792;-43
2022/08/06 04:09:45;;;;;;;;;;;23.60;53.30;;;;;;5044479;28;88076;-43
2022/08/06 04:12:11;;;;;;;;;;;23.60;53.20;;;;;;5047876;28;87087;-43
2022/08/06 04:14:37;;;;;;;;;;;23.50;53.20;;;;;;5044493;28;87772;-43
2022/08/06 04:17:04;;;;;;;;;;;23.50;53.20;;;;;;5044728;28;87106;-43
2022/08/06 04:19:30;;;;;;;;;;;23.50;53.20;;;;;;5044677;28;88774;-43
2022/08/06 04:21:55;;;;;;;;;;;23.50;53.20;;;;;;5044661;28;88091;-43
2022/08/06 04:24:21;;;;;;;;;;;23.50;53.30;;;;;;5045494;28;86427;-44
2022/08/06 04:26:48;;;;;;;;;;;23.50;53.30;;;;;;5044758;27;88048;-43
2022/08/06 04:29:16;;;;;;;;;;;23.50;53.30;;;;;;5043998;28;87920;-42
2022/08/06 04:31:43;;;;;;;;;;;23.40;53.30;;;;;;5044125;28;88125;-43
2022/08/06 04:34:08;;;;;;;;;;;23.40;53.40;;;;;;5047010;27;88334;-43
2022/08/06 04:36:34;;;;;;;;;;;23.40;53.30;;;;;;5044746;28;87099;-43
2022/08/06 04:39:00;;;;;;;;;;;23.40;53.30;;;;;;5044841;27;87298;-43
2022/08/06 04:41:26;;;;;;;;;;;23.40;53.30;;;;;;5044391;28;87307;-43
2022/08/06 04:43:52;;;;;;;;;;;23.40;53.40;;;;;;5044483;28;87020;-43
2022/08/06 04:46:17;;;;;;;;;;;23.40;53.40;;;;;;5044549;28;87661;-43
2022/08/06 04:48:43;;;;;;;;;;;23.30;53.40;;;;;;5044575;28;86920;-43
2022/08/06 04:51:08;;;;;;;;;;;23.30;53.40;;;;;;5044460;28;87088;-43
2022/08/06 04:53:38;;;;;;;;;;;23.30;53.30;;;;;;5044471;28;86943;-43
2022/08/06 04:56:04;;;;;;;;;;;23.30;53.40;;;;;;5046114;28;89313;-42
2022/08/06 04:58:30;;;;;;;;;;;23.30;53.50;;;;;;5044302;27;88494;-44
2022/08/06 05:00:55;;;;;;;;;;;23.30;53.50;;;;;;5043626;28;87985;-43
2022/08/06 05:03:21;;;;;;;;;;;23.30;53.50;;;;;;5044408;28;87308;-43
2022/08/06 05:05:50;;;;;;;;;;;23.30;53.50;;;;;;5044368;28;87453;-43
2022/08/06 05:08:16;;;;;;;;;;;23.30;53.60;;;;;;5043473;28;88117;-45
2022/08/06 05:10:47;;;;;;;;;;;23.30;53.60;;;;;;5044448;28;87114;-43
2022/08/06 05:13:13;;;;;;;;;;;23.30;53.60;;;;;;5044433;27;87436;-43
2022/08/06 05:15:40;;;;;;;;;;;23.30;53.60;;;;;;5043832;28;88049;-43
2022/08/06 05:18:12;;;;;;;;;;;23.20;53.60;;;;;;5046960;28;87059;-43
2022/08/06 05:20:38;;;;;;;;;;;23.30;53.70;;;;;;5042848;28;88107;-43
2022/08/06 05:23:09;;;;;;;;;;;23.20;53.70;;;;;;5043175;27;87056;-43
2022/08/06 05:25:35;;;;;;;;;;;23.20;53.70;;;;;;5043749;28;87062;-44
2022/08/06 05:28:01;;;;;;;;;;;23.20;53.70;;;;;;5043367;28;88225;-43
2022/08/06 05:30:26;;;;;;;;;;;23.20;53.70;;;;;;5044127;28;87106;-43
2022/08/06 05:32:52;;;;;;;;;;;23.20;53.70;;;;;;5043472;27;87719;-43
2022/08/06 05:35:18;;;;;;;;;;;23.20;53.70;;;;;;5043268;28;89635;-43
2022/08/06 05:37:44;;;;;;;;;;;23.20;53.70;;;;;;5046891;28;86363;-43
2022/08/06 05:40:09;;;;;;;;;;;23.20;53.80;;;;;;5043339;28;87810;-43
2022/08/06 05:42:35;;;;;;;;;;;23.20;53.80;;;;;;5043580;28;87059;-43
2022/08/06 05:45:01;;;;;;;;;;;23.20;53.90;;;;;;5043030;27;87903;-42
2022/08/06 05:47:28;;;;;;;;;;;23.20;53.90;;;;;;5043382;28;87158;-44
2022/08/06 05:50:05;;;;;;;;;;;23.20;53.90;;;;;;5043415;28;87137;-43
2022/08/06 05:52:34;;;;;;;;;;;23.20;54.00;;;;;;5043749;28;87620;-43
2022/08/06 05:55:03;;;;;;;;;;;23.20;54.00;;;;;;5042744;28;88018;-44
2022/08/06 05:57:28;;;;;;;;;;;23.20;54.10;;;;;;5043122;28;87129;-43
2022/08/06 05:59:57;;;;;;;;;;;23.20;54.10;;;;;;5045374;27;87158;-43
2022/08/06 06:02:23;;;;;;;;;;;23.20;54.10;;;;;;5043582;28;86292;-43
2022/08/06 06:04:49;;;;;;;;;;;23.20;54.20;;;;;;5043207;27;87255;-43
2022/08/06 06:07:15;;;;;;;;;;;23.20;54.20;;;;;;5042964;28;87908;-45
2022/08/06 06:09:44;;;;;;;;;;;23.20;54.20;;;;;;5042019;28;88132;-43
2022/08/06 06:12:10;;;;;;;;;;;23.20;54.20;;;;;;5043284;27;88117;-43
2022/08/06 06:14:37;;;;;;;;;;;23.20;54.30;;;;;;5042829;28;87705;-44
2022/08/06 06:17:23;;;;;;;;;;;23.20;54.30;;;;;;5043174;28;87050;-44
2022/08/06 06:20:03;;;;;;;;;;;23.10;54.30;;;;;;5042283;28;87471;-43
2022/08/06 06:22:34;;;;;;;;;;;23.20;54.40;;;;;;5045848;28;87941;-43
2022/08/06 06:25:22;;;;;;;;;;;23.20;54.40;;;;;;5043058;27;88914;-43
2022/08/06 06:27:48;;;;;;;;;;;23.20;54.50;;;;;;5036931;28;87414;-43
2022/08/06 06:30:16;;;;;;;;;;;23.10;54.50;;;;;;5043018;28;87091;-43
2022/08/06 06:32:46;;;;;;;;;;;23.20;54.60;;;;;;5042622;27;87227;-43
2022/08/06 06:35:18;;;;;;;;;;;23.20;55.20;;;;;;5040469;27;91086;-43
2022/08/06 06:37:54;;;;;;;;;;;23.20;54.50;;;;;;5042678;28;86971;-44
2022/08/06 06:40:20;;;;;;;;;;;23.20;54.60;;;;;;5042784;28;87633;-44
2022/08/06 06:43:04;;;;;;;;;;;23.20;54.70;;;;;;5042289;28;89440;-43
2022/08/06 06:45:49;;;;;;;;;;;23.20;54.70;;;;;;5045628;28;87060;-43
2022/08/06 06:48:20;;;;;;;;;;;23.20;54.70;;;;;;5033766;28;88530;-43
2022/08/06 06:50:47;;;;;;;;;;;23.20;54.70;;;;;;5042461;28;87055;-43
2022/08/06 06:53:14;;;;;;;;;;;23.20;54.70;;;;;;5043159;28;87463;-44
2022/08/06 06:55:43;;;;;;;;;;;23.20;54.80;;;;;;5042120;28;87966;-43
2022/08/06 06:58:11;;;;;;;;;;;23.20;54.80;;;;;;5042290;28;87426;-43
2022/08/06 07:00:39;;;;;;;;;;;23.20;54.80;;;;;;5041665;28;87856;-43
2022/08/06 07:03:05;;;;;;;;;;;23.20;54.80;;;;;;5042113;28;89601;-43
2022/08/06 07:05:32;;;;;;;;;;;23.20;54.80;;;;;;5042418;28;87074;-44
2022/08/06 07:07:58;;;;;;;;;;;23.20;54.90;;;;;;5044744;27;87263;-43
2022/08/06 07:10:25;;;;;;;;;;;23.20;54.80;;;;;;5042362;28;87062;-43
2022/08/06 07:12:51;;;;;;;;;;;23.20;54.80;;;;;;5042421;27;86960;-43
2022/08/06 07:15:18;;;;;;;;;;;23.20;54.90;;;;;;5042202;28;87987;-44
2022/08/06 07:17:44;;;;;;;;;;;23.20;54.90;;;;;;5042766;28;86233;-43
2022/08/06 07:20:11;;;;;;;;;;;23.20;55.00;;;;;;5042323;27;86965;-43
2022/08/06 07:22:39;;;;;;;;;;;23.20;55.00;;;;;;5041744;28;89267;-43
2022/08/06 07:25:05;;;;;;;;;;;23.30;55.00;;;;;;5041477;28;88063;-43
2022/08/06 07:27:42;;;;;;;;;;;23.20;55.00;;;;;;5044559;27;89759;-43
2022/08/06 07:30:09;;;;;;;;;;;23.20;55.00;;;;;;5042065;28;87165;-43
2022/08/06 07:32:35;;;;;;;;;;;23.20;55.00;;;;;;5042367;28;87449;-44
2022/08/06 07:35:01;;;;;;;;;;;23.20;55.00;;;;;;5041815;28;88165;-43
2022/08/06 07:37:28;;;;;;;;;;;23.20;55.00;;;;;;5042047;28;86999;-43
2022/08/06 07:39:55;;;;;;;;;;;23.30;55.00;;;;;;5041752;27;87428;-44
2022/08/06 07:42:24;;;;;;;;;;;23.20;55.00;;;;;;5042105;28;87263;-44
2022/08/06 07:44:52;;;;;;;;;;;23.30;55.00;;;;;;5041797;28;87455;-43
2022/08/06 07:47:19;;;;;;;;;;;23.30;55.00;;;;;;5044456;27;88005;-43
2022/08/06 07:49:47;;;;;;;;;;;23.30;55.00;;;;;;5047217;28;90208;-43
2022/08/06 07:52:14;;;;;;;;;;;23.30;55.00;;;;;;5044971;28;88305;-43
2022/08/06 07:54:40;;;;;;;;;;;23.30;55.00;;;;;;5045060;28;88166;-43
2022/08/06 07:57:06;;;;;;;;;;;23.30;55.00;;;;;;5045383;28;86883;-44
2022/08/06 07:59:32;;;;;;;;;;;23.30;55.00;;;;;;5045351;28;87524;-44
2022/08/06 08:01:58;;;;;;;;;;;23.30;55.00;;;;;;5044603;28;88114;-43
2022/08/06 08:07:08;;;;;;;;;;;23.30;54.90;;;;;;5046092;28;86503;-43
2022/08/06 08:09:35;;;;;;;;;;;23.30;55.00;;;;;;5044652;28;88063;-43
2022/08/06 08:12:01;;;;;;;;;;;23.30;54.90;;;;;;5047914;28;87131;-44
2022/08/06 08:14:27;;;;;;;;;;;23.40;55.00;;;;;;5043931;28;89176;-44
2022/08/06 08:16:53;;;;;;;;;;;23.40;54.90;;;;;;5045061;28;87050;-43
2022/08/06 08:19:23;;;;;;;;;;;23.40;54.80;;;;;;5044891;27;87489;-44
2022/08/06 08:21:51;;;;;;;;;;;23.40;54.80;;;;;;5044270;28;89655;-43
2022/08/06 08:24:17;;;;;;;;;;;23.40;54.70;;;;;;5044701;28;87102;-43
2022/08/06 08:26:42;;;;;;;;;;;23.40;54.70;;;;;;5044889;28;87479;-43
2022/08/06 08:29:09;;;;;;;;;;;23.50;54.80;;;;;;5044328;28;88008;-43
2022/08/06 08:31:35;;;;;;;;;;;23.50;54.60;;;;;;5045209;28;86328;-44
2022/08/06 08:34:01;;;;;;;;;;;23.50;54.70;;;;;;5047226;28;87388;-45
2022/08/06 08:36:26;;;;;;;;;;;23.50;54.70;;;;;;5044731;28;87138;-43
2022/08/06 08:38:56;;;;;;;;;;;23.50;54.70;;;;;;5044019;28;87989;-43
2022/08/06 08:41:25;;;;;;;;;;;23.50;54.60;;;;;;5044018;28;89542;-44
2022/08/06 08:43:55;;;;;;;;;;;23.50;54.60;;;;;;5044512;28;87154;-43
2022/08/06 08:46:21;;;;;;;;;;;23.50;54.50;;;;;;5044571;28;87461;-44
2022/08/06 08:48:47;;;;;;;;;;;23.60;54.50;;;;;;5043996;28;87921;-43
2022/08/06 08:51:13;;;;;;;;;;;23.60;54.60;;;;;;5044467;28;86988;-44
2022/08/06 08:53:44;;;;;;;;;;;23.60;54.50;;;;;;5044294;27;88583;-44
2022/08/06 08:56:11;;;;;;;;;;;23.60;54.50;;;;;;5047433;28;86430;-43
2022/08/06 08:58:38;;;;;;;;;;;23.60;54.40;;;;;;5043206;28;86936;-44
2022/08/06 09:01:08;;;;;;;;;;;23.60;54.30;;;;;;5042961;28;87852;-43
2022/08/06 09:03:38;;;;;;;;;;;23.70;54.40;;;;;;5042319;28;89118;-43
2022/08/06 09:06:04;;;;;;;;;;;23.70;54.30;;;;;;5044324;28;88526;-45
2022/08/06 09:08:30;;;;;;;;;;;23.70;54.40;;;;;;5043890;28;88054;-43
2022/08/06 09:10:56;;;;;;;;;;;23.70;54.30;;;;;;5044218;28;87151;-43
2022/08/06 09:13:26;;;;;;;;;;;23.70;54.30;;;;;;5044296;28;87229;-45
2022/08/06 09:15:51;;;;;;;;;;;23.70;54.20;;;;;;5043569;28;88290;-44
2022/08/06 09:18:18;;;;;;;;;;;23.70;54.20;;;;;;5046980;28;87046;-44
2022/08/06 09:20:43;;;;;;;;;;;23.80;54.30;;;;;;5044407;28;87608;-43
2022/08/06 09:23:09;;;;;;;;;;;23.80;54.30;;;;;;5043996;28;87131;-44
2022/08/06 09:25:34;;;;;;;;;;;23.80;54.30;;;;;;5044024;27;87458;-44
2022/08/06 09:28:00;;;;;;;;;;;23.80;54.10;;;;;;5042677;28;88939;-44
2022/08/06 09:30:26;;;;;;;;;;;23.90;54.20;;;;;;5043559;28;87146;-43
2022/08/06 09:32:53;;;;;;;;;;;23.90;54.10;;;;;;5043948;28;87543;-44
2022/08/06 09:35:22;;;;;;;;;;;23.90;54.10;;;;;;5043223;28;87145;-43
2022/08/06 09:37:48;;;;;;;;;;;23.90;54.10;;;;;;5046646;28;87067;-44
2022/08/06 09:40:15;;;;;;;;;;;23.90;54.10;;;;;;5043471;28;88001;-44
2022/08/06 09:42:42;;;;;;;;;;;23.90;54.10;;;;;;5043340;28;87109;-43
2022/08/06 09:45:09;;;;;;;;;;;24.00;54.10;;;;;;5044082;27;87324;-43
2022/08/06 09:47:36;;;;;;;;;;;24.00;54.20;;;;;;5043188;28;87956;-43
2022/08/06 09:50:01;;;;;;;;;;;24.00;54.10;;;;;;5043447;28;87049;-43
2022/08/06 09:52:27;;;;;;;;;;;24.00;53.80;;;;;;5042772;28;87902;-43
2022/08/06 09:54:53;;;;;;;;;;;24.10;53.90;;;;;;5043027;28;89422;-44
2022/08/06 09:57:18;;;;;;;;;;;24.10;53.90;;;;;;5043537;28;87121;-44
2022/08/06 09:59:45;;;;;;;;;;;24.10;54.00;;;;;;5045773;27;87397;-44
2022/08/06 10:02:14;;;;;;;;;;;24.10;53.80;;;;;;5042940;28;87044;-43
2022/08/06 10:04:40;;;;;;;;;;;24.20;53.80;;;;;;5043223;27;87351;-44
2022/08/06 10:07:06;;;;;;;;;;;24.20;53.90;;;;;;5042957;28;88275;-44
2022/08/06 10:09:32;;;;;;;;;;;24.20;53.90;;;;;;5043055;27;86163;-43
2022/08/06 10:11:58;;;;;;;;;;;24.30;53.80;;;;;;5043199;28;88489;-44
2022/08/06 10:14:31;;;;;;;;;;;24.30;53.70;;;;;;5042480;28;88324;-43
2022/08/06 10:17:07;;;;;;;;;;;24.30;53.70;;;;;;5042522;28;88049;-44
2022/08/06 10:19:33;;;;;;;;;;;24.30;53.60;;;;;;5043077;27;88184;-44
2022/08/06 10:22:09;;;;;;;;;;;24.30;54.20;;;;;;5045625;28;88133;-44
2022/08/06 10:24:45;;;;;;;;;;;24.40;53.80;;;;;;5042800;28;87510;-45
2022/08/06 10:27:12;;;;;;;;;;;24.40;53.30;;;;;;5042650;28;87940;-44
2022/08/06 10:29:42;;;;;;;;;;;24.40;53.70;;;;;;5042871;28;87085;-44
2022/08/06 10:32:09;;;;;;;;;;;24.40;53.50;;;;;;5042825;27;87938;-45
2022/08/06 10:34:35;;;;;;;;;;;24.40;53.50;;;;;;5043108;28;86573;-44
2022/08/06 10:37:02;;;;;;;;;;;24.50;53.50;;;;;;5042838;28;87109;-43
2022/08/06 10:39:33;;;;;;;;;;;24.50;53.60;;;;;;5042709;27;87327;-43
2022/08/06 10:42:00;;;;;;;;;;;24.50;53.70;;;;;;5041914;28;88623;-44
2022/08/06 10:44:26;;;;;;;;;;;24.50;53.60;;;;;;5045751;28;87094;-44
2022/08/06 10:46:52;;;;;;;;;;;24.50;53.70;;;;;;5042440;28;88112;-43
2022/08/06 10:49:21;;;;;;;;;;;24.50;53.60;;;;;;5042714;28;87107;-43
2022/08/06 10:51:50;;;;;;;;;;;24.60;53.60;;;;;;5042770;27;87357;-43
2022/08/06 10:54:16;;;;;;;;;;;24.60;53.70;;;;;;5042031;28;88173;-44
2022/08/06 10:56:41;;;;;;;;;;;24.60;53.50;;;;;;5042556;28;87105;-43
2022/08/06 10:59:07;;;;;;;;;;;24.60;53.30;;;;;;5042978;28;87415;-44
2022/08/06 11:01:45;;;;;;;;;;;24.70;53.60;;;;;;5041602;28;87963;-43
2022/08/06 11:04:10;;;;;;;;;;;24.70;53.30;;;;;;5042239;28;86728;-44
2022/08/06 11:06:59;;;;;;;;;;;24.70;53.30;;;;;;5044220;27;87989;-46
2022/08/06 11:09:27;;;;;;;;;;;24.80;53.30;;;;;;5021557;28;87120;-44
2022/08/06 11:11:56;;;;;;;;;;;24.80;53.30;;;;;;5042418;28;87398;-43
2022/08/06 11:14:21;;;;;;;;;;;24.80;53.20;;;;;;5042163;28;88302;-43
2022/08/06 11:16:54;;;;;;;;;;;24.80;53.50;;;;;;5042264;28;87097;-43
2022/08/06 11:19:36;;;;;;;;;;;24.80;53.40;;;;;;5042258;28;87011;-44
2022/08/06 11:22:01;;;;;;;;;;;24.80;53.50;;;;;;5044357;27;88112;-44
2022/08/06 11:24:27;;;;;;;;;;;24.90;53.50;;;;;;5046384;28;86242;-44
2022/08/06 11:26:52;;;;;;;;;;;24.90;53.40;;;;;;5046063;27;86796;-44
2022/08/06 11:29:18;;;;;;;;;;;24.90;53.30;;;;;;5048170;28;88109;-44
2022/08/06 11:31:47;;;;;;;;;;;24.90;53.40;;;;;;5045032;28;87865;-44
2022/08/06 11:34:14;;;;;;;;;;;25.00;53.40;;;;;;5045154;28;87937;-45
2022/08/06 11:36:56;;;;;;;;;;;25.00;53.40;;;;;;5045635;28;87025;-44
2022/08/06 11:39:23;;;;;;;;;;;25.00;53.50;;;;;;5045641;27;87544;-45
2022/08/06 11:41:50;;;;;;;;;;;25.00;53.30;;;;;;5045101;28;89702;-44
2022/08/06 11:44:18;;;;;;;;;;;25.10;53.10;;;;;;5045503;28;87114;-43
2022/08/06 11:46:47;;;;;;;;;;;25.10;53.20;;;;;;5045455;27;87886;-44
2022/08/06 11:49:13;;;;;;;;;;;25.10;53.30;;;;;;5048406;28;86749;-45
2022/08/06 11:51:58;;;;;;;;;;;25.10;53.30;;;;;;5045349;27;86940;-44
2022/08/06 11:54:27;;;;;;;;;;;25.10;53.20;;;;;;5044922;28;89170;-45
2022/08/06 11:57:00;;;;;;;;;;;25.10;53.20;;;;;;5044707;28;88027;-43
2022/08/06 11:59:30;;;;;;;;;;;25.20;53.20;;;;;;5044896;27;88828;-43
2022/08/06 12:01:56;;;;;;;;;;;25.30;53.30;;;;;;5044480;28;87975;-43
2022/08/06 12:04:36;;;;;;;;;;;25.30;53.10;;;;;;5045342;28;87095;-44
2022/08/06 12:07:20;;;;;;;;;;;25.30;53.10;;;;;;5044662;27;89185;-43
2022/08/06 12:09:47;;;;;;;;;;;25.30;53.20;;;;;;5044388;28;89515;-43
2022/08/06 12:12:24;;;;;;;;;;;25.30;53.30;;;;;;5048001;28;87188;-44
2022/08/06 12:14:50;;;;;;;;;;;25.40;53.20;;;;;;5045074;28;87238;-44
2022/08/06 12:17:20;;;;;;;;;;;25.40;53.00;;;;;;5045104;28;87113;-44
2022/08/06 12:19:47;;;;;;;;;;;25.40;52.70;;;;;;5044866;28;87454;-44
2022/08/06 12:22:16;;;;;;;;;;;25.50;53.10;;;;;;5044084;28;88936;-44
2022/08/06 12:24:42;;;;;;;;;;;25.50;52.70;;;;;;5044625;28;87066;-44
2022/08/06 12:27:09;;;;;;;;;;;25.50;52.80;;;;;;5044851;28;87506;-44
2022/08/06 12:29:35;;;;;;;;;;;25.50;53.00;;;;;;5044269;28;87951;-43
2022/08/06 12:32:00;;;;;;;;;;;25.50;52.90;;;;;;5044871;27;87605;-44
2022/08/06 12:34:27;;;;;;;;;;;25.50;52.80;;;;;;5047362;28;87523;-45
2022/08/06 12:36:53;;;;;;;;;;;25.50;52.70;;;;;;5044560;28;87046;-45
2022/08/06 12:39:18;;;;;;;;;;;25.60;52.70;;;;;;5045156;27;87324;-43
2022/08/06 12:41:44;;;;;;;;;;;25.60;52.70;;;;;;5044416;28;88140;-44
2022/08/06 12:44:10;;;;;;;;;;;25.60;52.60;;;;;;5044664;28;87061;-43
2022/08/06 12:46:36;;;;;;;;;;;25.60;52.80;;;;;;5043784;27;88612;-44
2022/08/06 12:49:01;;;;;;;;;;;25.60;52.80;;;;;;5044005;27;87973;-44
2022/08/06 12:51:27;;;;;;;;;;;25.60;52.80;;;;;;5044598;28;87353;-45
2022/08/06 12:53:57;;;;;;;;;;;25.70;52.70;;;;;;5044405;28;87478;-44
2022/08/06 12:56:23;;;;;;;;;;;25.70;52.70;;;;;;5046970;28;87643;-44
2022/08/06 12:58:50;;;;;;;;;;;25.70;52.80;;;;;;5044330;27;87220;-43
2022/08/06 13:01:17;;;;;;;;;;;25.70;52.40;;;;;;5043772;28;88016;-44
2022/08/06 13:03:46;;;;;;;;;;;25.70;52.30;;;;;;5044511;28;87860;-44
2022/08/06 13:06:14;;;;;;;;;;;25.80;52.10;;;;;;5044349;27;86917;-44
2022/08/06 13:08:39;;;;;;;;;;;25.80;52.30;;;;;;5043892;28;88220;-44
2022/08/06 13:11:05;;;;;;;;;;;25.80;52.50;;;;;;5043548;28;88036;-44
2022/08/06 13:13:38;;;;;;;;;;;25.80;52.40;;;;;;5043884;27;89593;-44
2022/08/06 13:16:07;;;;;;;;;;;25.90;52.40;;;;;;5043160;28;89501;-44
2022/08/06 13:18:33;;;;;;;;;;;25.90;52.50;;;;;;5046971;28;87088;-44
2022/08/06 13:21:01;;;;;;;;;;;25.90;52.40;;;;;;5043833;28;88009;-44
2022/08/06 13:23:28;;;;;;;;;;;25.90;52.30;;;;;;5043773;28;87063;-45
2022/08/06 13:25:54;;;;;;;;;;;26.00;52.20;;;;;;5044042;28;87495;-44
2022/08/06 13:28:21;;;;;;;;;;;26.00;52.20;;;;;;5043948;28;86236;-43
2022/08/06 13:30:47;;;;;;;;;;;26.00;52.30;;;;;;5043506;28;87080;-44
2022/08/06 13:33:13;;;;;;;;;;;26.00;52.20;;;;;;5043852;28;87518;-44
2022/08/06 13:35:39;;;;;;;;;;;26.00;52.10;;;;;;5042457;28;90297;-45
2022/08/06 13:38:05;;;;;;;;;;;26.10;52.00;;;;;;5043881;28;87576;-45
2022/08/06 13:40:38;;;;;;;;;;;26.10;52.10;;;;;;5046367;28;87090;-43
2022/08/06 13:43:03;;;;;;;;;;;26.10;52.60;;;;;;5043679;28;87130;-44
2022/08/06 13:45:29;;;;;;;;;;;26.10;52.20;;;;;;5043078;27;87457;-44
2022/08/06 13:48:10;;;;;;;;;;;26.20;52.10;;;;;;5043300;28;87228;-44
2022/08/06 13:50:43;;;;;;;;;;;26.20;52.00;;;;;;5043677;28;86852;-44
2022/08/06 13:53:10;;;;;;;;;;;26.20;51.70;;;;;;5043649;27;89169;-45
2022/08/06 13:55:36;;;;;;;;;;;26.20;52.00;;;;;;5043121;28;87659;-44
2022/08/06 13:58:01;;;;;;;;;;;26.20;51.90;;;;;;5043194;28;87345;-44
2022/08/06 14:00:27;;;;;;;;;;;26.20;51.90;;;;;;5045051;28;88121;-43
2022/08/06 14:02:54;;;;;;;;;;;26.30;51.60;;;;;;5043250;28;88347;-44
2022/08/06 14:05:20;;;;;;;;;;;26.30;51.60;;;;;;5043160;27;88746;-44
2022/08/06 14:07:45;;;;;;;;;;;26.40;51.50;;;;;;5042897;28;88113;-44
2022/08/06 14:10:11;;;;;;;;;;;26.30;51.30;;;;;;5043192;28;87111;-44
2022/08/06 14:12:37;;;;;;;;;;;26.40;51.00;;;;;;5042809;28;87096;-44
2022/08/06 14:15:03;;;;;;;;;;;26.40;51.30;;;;;;5042710;28;87963;-44
2022/08/06 14:17:28;;;;;;;;;;;26.40;51.30;;;;;;5043609;28;86442;-44
2022/08/06 14:19:54;;;;;;;;;;;26.40;51.50;;;;;;5043190;28;87042;-44
2022/08/06 14:22:19;;;;;;;;;;;26.40;51.30;;;;;;5045657;28;88131;-44
2022/08/06 14:24:45;;;;;;;;;;;26.40;51.50;;;;;;5042610;28;87823;-44